Rush Springs, Oklahoma
Current Conditions -  °F | °C
As of 8:35 PM on Wednesday 17 Dec 2014 (Local Time) from KDUC Reporting Station
Overcast Overcast  
Wind Chill: 31°   Ceiling: 300
Heat Index: 37°   Visibility: NA
Dew Point: 37°   Wind: 9mph
Humidity: 100%   Direction: 150°SSE
Pressure: 30.14"   Gusts: NA
Location:  34.78°N, 97.96°W
Report Text: KDUC 180235Z AUTO 15008KT OVC003 03/03 A3014 RMK AO2 PWINO
Loading
Personal Weather Stations






























Interactive Weather Map New forecast layout! Learn more

10-Day Weather Forecast

Advertisements
Track Severe Weather on mobile